Time;durP1;ratioP1;P1;durP2;ratioP2;P2;SDS_P1;SDS_P2;PMS_P1;PMS_P2;Temp;Humidity;BMP_temperature;BMP_pressure;BME280_temperature;BME280_humidity;BME280_pressure;Samples;Min_cycle;Max_cycle;Signal;HPM_P1;HPM_P2
2022/07/30 00:01:35;;;;;;;8.35;4.05;;;18.10;99.90;;;;;;4843442;29;20069;-53
2022/07/30 00:04:01;;;;;;;6.93;4.22;;;18.10;99.90;;;;;;4842191;29;20037;-55
2022/07/30 00:06:27;;;;;;;5.28;3.65;;;18.10;99.90;;;;;;4843213;29;20049;-55
2022/07/30 00:08:52;;;;;;;9.35;4.32;;;18.10;99.90;;;;;;4843084;29;20109;-56
2022/07/30 00:11:20;;;;;;;7.75;4.43;;;18.10;99.90;;;;;;4843047;29;20459;-56
2022/07/30 00:13:46;;;;;;;5.07;4.05;;;18.00;99.90;;;;;;4842866;29;20030;-56
2022/07/30 00:16:11;;;;;;;6.18;3.67;;;18.10;99.90;;;;;;4842804;29;20045;-56
2022/07/30 00:18:37;;;;;;;3.80;3.42;;;18.10;99.90;;;;;;4843177;29;20037;-58
2022/07/30 00:21:03;;;;;;;3.60;3.30;;;18.20;99.90;;;;;;4842859;29;20034;-56
2022/07/30 00:23:29;;;;;;;7.50;3.75;;;18.20;99.90;;;;;;4843100;29;20061;-58
2022/07/30 00:25:54;;;;;;;7.65;4.68;;;18.10;99.90;;;;;;4842601;29;20046;-54
2022/07/30 00:28:20;;;;;;;5.47;3.97;;;18.10;99.90;;;;;;4842975;29;20162;-55
2022/07/30 00:30:46;;;;;;;4.25;3.88;;;18.00;99.90;;;;;;4842570;29;20084;-56
2022/07/30 00:33:11;;;;;;;4.95;3.80;;;17.90;99.90;;;;;;4842818;29;20033;-57
2022/07/30 00:35:38;;;;;;;4.50;3.47;;;18.00;99.90;;;;;;4842836;29;20169;-54
2022/07/30 00:38:04;;;;;;;5.68;4.55;;;17.90;99.90;;;;;;4842892;29;20030;-54
2022/07/30 00:40:29;;;;;;;4.35;3.95;;;18.00;99.90;;;;;;4842838;29;20037;-55
2022/07/30 00:42:55;;;;;;;4.65;4.25;;;18.00;99.90;;;;;;4843016;29;20026;-56
2022/07/30 00:45:21;;;;;;;4.80;3.75;;;17.90;99.90;;;;;;4842709;29;20053;-56
2022/07/30 00:47:46;;;;;;;5.32;4.13;;;17.90;99.90;;;;;;4842781;29;20463;-55
2022/07/30 00:50:14;;;;;;;6.50;4.10;;;17.80;99.90;;;;;;4843007;29;20558;-55
2022/07/30 00:52:40;;;;;;;5.20;3.67;;;17.80;99.90;;;;;;4842683;29;20048;-56
2022/07/30 00:55:08;;;;;;;8.43;4.53;;;17.70;99.90;;;;;;4842143;29;20041;-56
2022/07/30 00:57:35;;;;;;;4.75;4.30;;;17.60;99.90;;;;;;4843345;29;20393;-54
2022/07/30 01:00:22;;;;;;;4.43;4.03;;;17.70;99.90;;;;;;4842620;29;20029;-56
2022/07/30 01:02:48;;;;;;;6.90;4.78;;;17.70;99.90;;;;;;4842635;29;20391;-57
2022/07/30 01:05:14;;;;;;;5.05;4.47;;;17.70;99.90;;;;;;4842803;29;20038;-57
2022/07/30 01:07:40;;;;;;;10.10;4.03;;;17.70;99.90;;;;;;4841523;29;20042;-56
2022/07/30 01:10:10;;;;;;;8.30;4.50;;;17.70;99.90;;;;;;4842922;29;20033;-57
2022/07/30 01:12:36;;;;;;;5.07;4.63;;;17.70;99.90;;;;;;4842562;29;20383;-57
2022/07/30 01:15:04;;;;;;;7.95;4.72;;;17.70;99.90;;;;;;4842293;29;20037;-56
2022/07/30 01:17:30;;;;;;;4.60;4.20;;;17.70;99.90;;;;;;4842062;29;20026;-54
2022/07/30 01:20:01;;;;;;;6.63;4.85;;;17.70;99.90;;;;;;4842180;29;20091;-52
2022/07/30 01:22:29;;;;;;;4.72;4.25;;;17.70;99.90;;;;;;4841944;29;20371;-52
2022/07/30 01:24:58;;;;;;;4.30;3.90;;;17.50;99.90;;;;;;4841957;29;20045;-56
2022/07/30 01:27:27;;;;;;;4.75;4.30;;;17.60;99.90;;;;;;4841928;29;20120;-53
2022/07/30 01:29:55;;;;;;;8.02;4.18;;;17.60;99.90;;;;;;4840265;29;20030;-55
2022/07/30 01:32:24;;;;;;;4.28;3.92;;;17.60;99.90;;;;;;4841706;29;20086;-54
2022/07/30 01:34:51;;;;;;;6.05;4.18;;;17.60;99.90;;;;;;4841890;29;20081;-54
2022/07/30 01:37:17;;;;;;;5.80;4.55;;;17.60;99.90;;;;;;4841648;29;20067;-51
2022/07/30 01:39:44;;;;;;;7.20;4.22;;;17.60;99.90;;;;;;4841559;29;20049;-57
2022/07/30 01:42:12;;;;;;;6.88;5.13;;;17.60;99.90;;;;;;4841745;29;20030;-51
2022/07/30 01:44:39;;;;;;;7.05;4.32;;;17.50;99.90;;;;;;4841769;29;20030;-51
2022/07/30 01:47:07;;;;;;;7.47;3.80;;;17.60;99.90;;;;;;4841275;29;20038;-54
2022/07/30 01:49:34;;;;;;;5.40;4.47;;;17.50;99.90;;;;;;4841596;29;20436;-55
2022/07/30 01:52:01;;;;;;;5.15;4.38;;;17.50;99.90;;;;;;4841120;29;20030;-56
2022/07/30 01:54:29;;;;;;;7.90;4.63;;;17.50;99.90;;;;;;4841507;29;20034;-57
2022/07/30 01:56:57;;;;;;;5.70;4.55;;;17.50;99.90;;;;;;4841327;29;20026;-54
2022/07/30 01:59:25;;;;;;;6.95;4.38;;;17.50;99.90;;;;;;4841174;29;20030;-53
2022/07/30 02:01:51;;;;;;;6.85;4.80;;;17.50;99.90;;;;;;4841246;29;20026;-52
2022/07/30 02:04:17;;;;;;;7.07;4.50;;;17.50;99.90;;;;;;4841043;29;20059;-56
2022/07/30 02:06:51;;;;;;;4.88;4.38;;;17.40;99.90;;;;;;4840633;29;20113;-53
2022/07/30 02:09:22;;;;;;;5.00;4.50;;;17.30;99.90;;;;;;4840851;29;20417;-55
2022/07/30 02:14:51;;;;;;;5.95;5.45;;;17.20;99.90;;;;;;4841211;29;20559;-54
2022/07/30 02:17:22;;;;;;;10.00;4.95;;;17.20;99.90;;;;;;4840951;29;20032;-53
2022/07/30 02:19:53;;;;;;;6.43;5.25;;;17.20;99.90;;;;;;4840433;29;20068;-55
2022/07/30 02:22:19;;;;;;;5.63;5.03;;;17.20;99.90;;;;;;4840836;29;20022;-55
2022/07/30 02:24:47;;;;;;;4.93;4.53;;;17.20;99.90;;;;;;4840960;29;20614;-54
2022/07/30 02:27:18;;;;;;;7.32;4.20;;;17.20;99.90;;;;;;4840929;29;20045;-54
2022/07/30 02:29:47;;;;;;;9.05;4.30;;;17.20;99.90;;;;;;4840612;29;20076;-55
2022/07/30 02:32:17;;;;;;;3.92;3.55;;;17.20;99.90;;;;;;4840921;29;20034;-53
2022/07/30 02:34:46;;;;;;;6.95;4.15;;;17.10;99.90;;;;;;4840909;29;20054;-53
2022/07/30 02:37:14;;;;;;;4.22;3.83;;;17.10;99.90;;;;;;4840905;29;20113;-56
2022/07/30 02:39:42;;;;;;;5.05;3.67;;;17.00;99.90;;;;;;4822957;29;20057;-56
2022/07/30 02:42:08;;;;;;;7.18;4.07;;;17.00;99.90;;;;;;4833639;29;20113;-53
2022/07/30 02:44:37;;;;;;;3.65;3.35;;;17.00;99.90;;;;;;4840807;29;20417;-56
2022/07/30 02:47:04;;;;;;;6.47;4.20;;;17.00;99.90;;;;;;4840520;29;20125;-53
2022/07/30 02:49:34;;;;;;;4.57;3.83;;;17.00;99.90;;;;;;4840357;29;20033;-56
2022/07/30 02:52:01;;;;;;;5.85;4.13;;;17.00;99.90;;;;;;4840396;29;20066;-57
2022/07/30 02:54:29;;;;;;;4.32;3.58;;;16.90;99.90;;;;;;4840437;29;20033;-53
2022/07/30 02:56:56;;;;;;;6.15;4.30;;;17.00;99.90;;;;;;4840519;29;20063;-56
2022/07/30 02:59:23;;;;;;;7.95;3.72;;;17.00;99.90;;;;;;4840614;29;20101;-53
2022/07/30 03:01:50;;;;;;;8.43;4.30;;;17.00;99.90;;;;;;4840545;29;20026;-54
2022/07/30 03:04:20;;;;;;;4.80;3.40;;;17.00;99.90;;;;;;4840530;29;20026;-56
2022/07/30 03:06:47;;;;;;;4.60;4.00;;;17.00;99.90;;;;;;4840104;29;20038;-56
2022/07/30 03:09:16;;;;;;;4.88;3.45;;;17.00;99.90;;;;;;4840729;29;20077;-54
2022/07/30 03:11:42;;;;;;;3.67;3.38;;;16.90;99.90;;;;;;4840377;29;20045;-57
2022/07/30 03:14:09;;;;;;;11.18;4.03;;;16.90;99.90;;;;;;4839654;29;20363;-56
2022/07/30 03:16:37;;;;;;;4.20;3.60;;;16.90;99.90;;;;;;4840518;29;20033;-57
2022/07/30 03:19:08;;;;;;;4.20;3.85;;;16.90;99.90;;;;;;4841753;29;20042;-54
2022/07/30 03:21:36;;;;;;;3.92;3.40;;;16.90;99.90;;;;;;4844162;29;20490;-54
2022/07/30 03:24:05;;;;;;;5.10;4.10;;;16.90;99.90;;;;;;4842708;29;20049;-52
2022/07/30 03:26:33;;;;;;;5.40;4.38;;;16.90;99.90;;;;;;4843776;29;20428;-53
2022/07/30 03:29:00;;;;;;;5.32;4.00;;;16.80;99.90;;;;;;4844004;29;20030;-52
2022/07/30 03:31:27;;;;;;;6.38;4.10;;;16.80;99.90;;;;;;4843613;29;20022;-52
2022/07/30 03:33:53;;;;;;;6.60;3.50;;;16.70;99.90;;;;;;4843999;29;20029;-55
2022/07/30 03:36:19;;;;;;;4.03;3.60;;;16.70;99.90;;;;;;4843837;29;20195;-54
2022/07/30 03:38:46;;;;;;;5.45;3.55;;;16.60;99.90;;;;;;4843707;29;20112;-53
2022/07/30 03:41:12;;;;;;;3.67;3.33;;;16.60;99.90;;;;;;4843729;29;20029;-55
2022/07/30 03:43:39;;;;;;;5.85;3.10;;;16.60;99.90;;;;;;4843949;29;20049;-53
2022/07/30 03:46:06;;;;;;;5.53;3.55;;;16.60;99.90;;;;;;4842322;29;20589;-54
2022/07/30 03:48:34;;;;;;;3.00;2.80;;;16.60;99.90;;;;;;4842170;29;20474;-56
2022/07/30 03:51:02;;;;;;;2.97;2.70;;;16.50;99.90;;;;;;4843568;29;20030;-52
2022/07/30 03:53:29;;;;;;;4.72;3.03;;;16.50;99.90;;;;;;4843546;29;20069;-52
2022/07/30 03:55:55;;;;;;;3.55;3.25;;;16.50;99.90;;;;;;4843272;29;20466;-55
2022/07/30 03:58:21;;;;;;;3.85;3.13;;;16.50;99.90;;;;;;4843562;29;20049;-53
2022/07/30 04:00:48;;;;;;;4.97;3.08;;;16.50;99.90;;;;;;4843229;29;20060;-56
2022/07/30 04:03:24;;;;;;;4.75;3.00;;;16.50;99.90;;;;;;4843403;29;20030;-55
2022/07/30 04:05:50;;;;;;;3.13;2.83;;;16.50;99.90;;;;;;4843132;29;20038;-55
2022/07/30 04:08:16;;;;;;;4.05;3.20;;;16.50;99.90;;;;;;4843513;29;20082;-55
2022/07/30 04:10:41;;;;;;;4.20;3.80;;;16.60;99.90;;;;;;4843227;29;20022;-54
2022/07/30 04:13:07;;;;;;;5.13;3.78;;;16.60;99.90;;;;;;4843018;29;20033;-52
2022/07/30 04:15:42;;;;;;;8.30;3.63;;;16.60;99.90;;;;;;4843158;29;20125;-54
2022/07/30 04:18:10;;;;;;;6.13;3.65;;;16.50;99.90;;;;;;4842512;29;20023;-52
2022/07/30 04:20:40;;;;;;;4.40;4.00;;;16.40;99.90;;;;;;4842924;29;20030;-57
2022/07/30 04:23:06;;;;;;;5.82;3.53;;;16.40;99.90;;;;;;4842710;29;20569;-56
2022/07/30 04:25:33;;;;;;;3.83;3.53;;;16.30;99.90;;;;;;4842680;29;20060;-57
2022/07/30 04:27:58;;;;;;;7.35;3.97;;;16.30;99.90;;;;;;4841676;29;20045;-55
2022/07/30 04:30:26;;;;;;;9.23;3.47;;;16.30;99.90;;;;;;4842258;29;20034;-57
2022/07/30 04:32:52;;;;;;;8.48;3.35;;;16.30;99.90;;;;;;4842712;29;20041;-56
2022/07/30 04:35:26;;;;;;;6.88;3.08;;;16.40;99.90;;;;;;4842972;29;20431;-56
2022/07/30 04:37:52;;;;;;;4.63;3.67;;;16.30;99.90;;;;;;4842599;29;20036;-55
2022/07/30 04:40:17;;;;;;;4.10;3.70;;;16.40;99.90;;;;;;4842768;29;20113;-55
2022/07/30 04:42:43;;;;;;;6.45;3.30;;;16.40;99.90;;;;;;4842793;29;20034;-56
2022/07/30 04:45:09;;;;;;;4.50;3.67;;;16.50;99.90;;;;;;4842520;29;20041;-58
2022/07/30 04:47:34;;;;;;;3.38;3.08;;;16.60;99.90;;;;;;4842501;29;20026;-53
2022/07/30 04:50:03;;;;;;;9.57;3.65;;;16.60;99.90;;;;;;4842606;29;20473;-57
2022/07/30 04:52:30;;;;;;;3.45;2.78;;;16.70;99.90;;;;;;4842586;29;20113;-57
2022/07/30 04:55:01;;;;;;;4.13;3.30;;;16.80;99.90;;;;;;4841856;29;20529;-56
2022/07/30 04:57:27;;;;;;;3.95;3.55;;;16.80;99.90;;;;;;4841308;29;20049;-52
2022/07/30 04:59:53;;;;;;;4.18;3.53;;;16.90;99.90;;;;;;4841434;29;20081;-52
2022/07/30 05:02:22;;;;;;;5.30;3.78;;;17.00;99.90;;;;;;4841299;29;20457;-55
2022/07/30 05:04:49;;;;;;;6.25;3.92;;;17.10;99.90;;;;;;4841310;29;20030;-55
2022/07/30 05:07:16;;;;;;;7.07;4.00;;;17.10;99.90;;;;;;4840915;29;20069;-55
2022/07/30 05:09:42;;;;;;;8.77;3.97;;;17.10;99.90;;;;;;4841647;29;20480;-55
2022/07/30 05:12:08;;;;;;;5.03;4.20;;;17.10;99.90;;;;;;4840967;29;20418;-55
2022/07/30 05:14:40;;;;;;;5.00;3.40;;;17.10;99.90;;;;;;4841190;29;20030;-54
2022/07/30 05:17:06;;;;;;;6.80;3.90;;;17.10;99.90;;;;;;4841594;29;20054;-55
2022/07/30 05:19:32;;;;;;;5.65;3.03;;;17.10;99.90;;;;;;4842544;29;20034;-55
2022/07/30 05:21:58;;;;;;;5.03;3.58;;;17.10;99.90;;;;;;4840686;29;20410;-54
2022/07/30 05:24:24;;;;;;;3.80;3.33;;;17.20;99.90;;;;;;4841067;29;20041;-54
2022/07/30 05:26:49;;;;;;;3.92;3.25;;;17.20;99.90;;;;;;4840395;29;20046;-51
2022/07/30 05:29:15;;;;;;;6.00;3.20;;;17.30;99.90;;;;;;4840617;29;20395;-56
2022/07/30 05:31:41;;;;;;;4.43;3.40;;;17.40;99.90;;;;;;4839580;29;20037;-55
2022/07/30 05:34:07;;;;;;;3.88;3.13;;;17.40;99.90;;;;;;4841854;29;20030;-55
2022/07/30 05:36:33;;;;;;;3.15;2.78;;;17.40;99.90;;;;;;4840678;29;20061;-55
2022/07/30 05:38:59;;;;;;;6.03;3.70;;;17.60;99.90;;;;;;4840736;29;20390;-55
2022/07/30 05:41:28;;;;;;;3.30;3.03;;;17.70;99.90;;;;;;4840028;29;20026;-57
2022/07/30 05:43:55;;;;;;;12.00;4.03;;;17.80;99.90;;;;;;4840314;29;20033;-51
2022/07/30 05:46:21;;;;;;;6.50;3.53;;;17.80;99.90;;;;;;4840241;29;20029;-52
2022/07/30 05:48:47;;;;;;;5.47;3.72;;;17.80;99.90;;;;;;4840256;29;20049;-53
2022/07/30 05:51:13;;;;;;;6.97;3.95;;;17.90;99.90;;;;;;4840349;29;20026;-55
2022/07/30 05:53:39;;;;;;;7.45;4.32;;;17.80;99.90;;;;;;4840497;29;20372;-53
2022/07/30 05:56:04;;;;;;;4.45;4.05;;;18.00;99.90;;;;;;4839979;29;20040;-56
2022/07/30 05:58:30;;;;;;;3.72;3.42;;;17.90;99.90;;;;;;4840193;29;20033;-55
2022/07/30 06:00:55;;;;;;;3.83;2.95;;;18.00;99.90;;;;;;4839561;29;20098;-55
2022/07/30 06:03:21;;;;;;;10.63;3.72;;;18.20;99.90;;;;;;4839690;29;20048;-57
2022/07/30 06:05:47;;;;;;;7.13;3.70;;;18.30;99.90;;;;;;4840163;29;20089;-56
2022/07/30 06:08:12;;;;;;;3.45;3.15;;;18.40;99.90;;;;;;4840391;29;20363;-56
2022/07/30 06:10:38;;;;;;;3.75;3.45;;;18.50;99.90;;;;;;4840094;29;20398;-55
2022/07/30 06:13:04;;;;;;;3.25;2.95;;;18.50;99.90;;;;;;4840351;29;20038;-55
2022/07/30 06:15:30;;;;;;;7.60;3.65;;;18.60;99.90;;;;;;4838445;29;20026;-51
2022/07/30 06:17:55;;;;;;;4.45;3.95;;;18.60;99.90;;;;;;4839544;29;20054;-56
2022/07/30 06:20:21;;;;;;;6.75;3.30;;;18.50;99.90;;;;;;4840109;29;20034;-55
2022/07/30 06:22:47;;;;;;;8.50;3.45;;;18.60;99.90;;;;;;4839533;29;20029;-57
2022/07/30 06:25:12;;;;;;;5.35;3.63;;;18.80;99.90;;;;;;4839769;29;20049;-55
2022/07/30 06:27:39;;;;;;;5.30;3.20;;;18.90;99.90;;;;;;4839418;29;20030;-53
2022/07/30 06:30:07;;;;;;;4.53;3.17;;;18.80;99.90;;;;;;4839670;29;20069;-57
2022/07/30 06:32:33;;;;;;;8.50;3.28;;;18.70;99.90;;;;;;4840242;29;20038;-55
2022/07/30 06:34:59;;;;;;;5.78;3.00;;;18.80;99.90;;;;;;4839798;29;20037;-57
2022/07/30 06:37:26;;;;;;;4.10;2.88;;;19.00;99.90;;;;;;4838565;29;20037;-56
2022/07/30 06:39:51;;;;;;;3.53;3.22;;;19.00;99.90;;;;;;4839927;29;20050;-57
2022/07/30 06:42:17;;;;;;;4.22;2.97;;;19.10;99.90;;;;;;4839656;29;20124;-57
2022/07/30 06:44:43;;;;;;;3.15;2.85;;;19.30;99.90;;;;;;4839682;29;20028;-55
2022/07/30 06:47:09;;;;;;;6.97;3.15;;;19.30;99.90;;;;;;4840712;29;20059;-56
2022/07/30 06:49:36;;;;;;;4.30;2.85;;;19.60;99.90;;;;;;4839800;29;20034;-55
2022/07/30 06:52:02;;;;;;;4.70;2.92;;;19.50;99.90;;;;;;4839626;29;20087;-54
2022/07/30 06:54:28;;;;;;;2.42;2.22;;;19.70;99.90;;;;;;4839477;29;20130;-54
2022/07/30 06:56:54;;;;;;;3.25;2.63;;;19.70;99.90;;;;;;4838926;29;20105;-56
2022/07/30 06:59:19;;;;;;;6.78;2.60;;;19.50;99.90;;;;;;4837485;29;20090;-54
2022/07/30 07:01:45;;;;;;;3.00;2.80;;;19.50;99.90;;;;;;4838791;29;20026;-54
2022/07/30 07:04:11;;;;;;;14.38;3.28;;;19.40;99.90;;;;;;4839256;29;20386;-57
2022/07/30 07:06:36;;;;;;;4.13;3.17;;;19.40;99.90;;;;;;4839399;29;20138;-53
2022/07/30 07:09:03;;;;;;;6.57;2.78;;;19.40;99.90;;;;;;4838952;29;20065;-54
2022/07/30 07:11:29;;;;;;;4.57;2.97;;;19.60;99.90;;;;;;4838220;29;20030;-53
2022/07/30 07:13:55;;;;;;;3.67;3.35;;;19.40;99.90;;;;;;4838913;29;20313;-54
2022/07/30 07:16:24;;;;;;;7.28;2.95;;;19.30;99.90;;;;;;4838443;29;20030;-54
2022/07/30 07:18:51;;;;;;;3.88;3.30;;;19.30;99.90;;;;;;4838823;29;20320;-54
2022/07/30 07:21:16;;;;;;;4.75;3.35;;;19.40;99.90;;;;;;4838683;29;20026;-54
2022/07/30 07:23:43;;;;;;;4.35;3.25;;;19.70;99.90;;;;;;4838420;29;20052;-56
2022/07/30 07:26:10;;;;;;;3.80;3.22;;;19.90;99.90;;;;;;4837233;29;20095;-55
2022/07/30 07:28:36;;;;;;;6.22;3.78;;;19.90;99.90;;;;;;4836876;29;20100;-51
2022/07/30 07:31:02;;;;;;;4.22;3.25;;;20.40;99.90;;;;;;4836034;29;20756;-53
2022/07/30 07:33:28;;;;;;;5.18;3.90;;;20.20;99.90;;;;;;4837149;29;20034;-55
2022/07/30 07:35:54;;;;;;;6.43;4.00;;;20.40;99.90;;;;;;4838118;29;20382;-56
2022/07/30 07:38:20;;;;;;;5.03;4.53;;;20.50;99.90;;;;;;4837571;29;20072;-50
2022/07/30 07:40:46;;;;;;;9.32;4.90;;;20.50;99.90;;;;;;4837329;29;20030;-54
2022/07/30 07:43:13;;;;;;;9.93;4.07;;;20.00;99.90;;;;;;4839110;29;20034;-52
2022/07/30 07:45:40;;;;;;;14.65;5.55;;;20.00;99.90;;;;;;4839216;29;20030;-55
2022/07/30 07:48:06;;;;;;;10.30;5.15;;;20.30;99.90;;;;;;4838442;29;20498;-56
2022/07/30 07:50:31;;;;;;;7.30;5.72;;;20.20;99.90;;;;;;4839239;29;20050;-54
2022/07/30 07:52:57;;;;;;;9.07;5.60;;;20.30;99.90;;;;;;4837463;29;20449;-55
2022/07/30 07:55:23;;;;;;;5.57;4.13;;;20.60;99.90;;;;;;4839261;29;20030;-54
2022/07/30 07:57:48;;;;;;;9.30;4.50;;;20.90;99.90;;;;;;4837043;29;20073;-51
2022/07/30 08:00:16;;;;;;;5.15;4.00;;;20.40;99.90;;;;;;4838857;29;20037;-52
2022/07/30 08:02:43;;;;;;;6.13;4.15;;;20.60;99.90;;;;;;4837681;29;20078;-54
2022/07/30 08:05:11;;;;;;;4.65;4.25;;;20.50;99.90;;;;;;4840719;29;20042;-55
2022/07/30 08:07:37;;;;;;;14.80;4.50;;;20.70;99.90;;;;;;4842611;29;20034;-51
2022/07/30 08:13:26;;;;;;;7.82;4.30;;;20.90;99.90;;;;;;4842614;29;20036;-57
2022/07/30 08:18:27;;;;;;;7.20;4.50;;;20.50;99.90;;;;;;4866675;24;20404;-53
2022/07/30 08:20:52;;;;;;;4.80;4.07;;;20.20;99.90;;;;;;4841604;29;20033;-57
2022/07/30 08:23:21;;;;;;;6.55;4.40;;;20.30;99.90;;;;;;4841875;29;20120;-54
2022/07/30 08:25:47;;;;;;;8.35;4.40;;;20.70;99.90;;;;;;4842042;29;20105;-53
2022/07/30 08:28:21;;;;;;;4.30;3.65;;;21.00;99.90;;;;;;4842825;29;20034;-56
2022/07/30 08:30:48;;;;;;;5.07;3.47;;;20.90;99.90;;;;;;4845182;29;20029;-57
2022/07/30 08:33:14;;;;;;;4.82;4.18;;;21.30;99.90;;;;;;4843437;29;20030;-53
2022/07/30 08:35:40;;;;;;;8.57;4.13;;;21.50;99.90;;;;;;4841350;29;20030;-52
2022/07/30 08:38:06;;;;;;;4.10;3.63;;;21.40;99.90;;;;;;4842318;29;20068;-54
2022/07/30 08:40:33;;;;;;;14.45;6.00;;;21.30;99.90;;;;;;4841837;29;20037;-55
2022/07/30 08:43:03;;;;;;;9.45;4.22;;;21.20;99.90;;;;;;4841401;29;20038;-53
2022/07/30 08:45:33;;;;;;;10.05;3.97;;;21.10;99.90;;;;;;4841830;29;20025;-53
2022/07/30 08:48:00;;;;;;;8.10;4.72;;;21.40;99.90;;;;;;4843048;29;20038;-54
2022/07/30 08:50:35;;;;;;;12.55;4.38;;;21.30;99.90;;;;;;4844141;29;20022;-51
2022/07/30 08:53:02;;;;;;;5.53;4.45;;;21.50;99.90;;;;;;4842076;29;20490;-56
2022/07/30 08:55:28;;;;;;;5.45;4.50;;;21.70;99.90;;;;;;4841203;29;20083;-53
2022/07/30 08:57:54;;;;;;;6.18;3.75;;;21.70;99.90;;;;;;4841028;29;20474;-54
2022/07/30 09:00:20;;;;;;;5.53;3.80;;;21.60;99.90;;;;;;4841544;29;20030;-53
2022/07/30 09:02:46;;;;;;;6.32;3.38;;;21.40;99.90;;;;;;4842013;29;20388;-55
2022/07/30 09:05:12;;;;;;;4.38;3.97;;;21.80;99.90;;;;;;4841346;29;20042;-55
2022/07/30 09:07:38;;;;;;;5.20;4.22;;;22.30;99.90;;;;;;4841235;29;20026;-53
2022/07/30 09:10:07;;;;;;;7.95;4.35;;;22.00;99.90;;;;;;4840592;29;20368;-52
2022/07/30 09:12:45;;;;;;;11.43;4.10;;;22.30;99.90;;;;;;4840651;29;20026;-52
2022/07/30 09:15:14;;;;;;;8.40;3.92;;;22.50;99.90;;;;;;4841955;29;20095;-53
2022/07/30 09:17:59;;;;;;;8.57;3.83;;;22.60;99.90;;;;;;4841364;29;20462;-58
2022/07/30 09:20:35;;;;;;;6.30;3.97;;;22.30;99.90;;;;;;4842885;29;20457;-69
2022/07/30 09:23:05;;;;;;;4.35;3.92;;;22.50;99.90;;;;;;4841475;29;20034;-56
2022/07/30 09:26:03;;;;;;;4.40;3.95;;;22.50;99.90;;;;;;4856211;24;20116;-79
2022/07/30 09:28:34;;;;;;;11.15;4.70;;;22.60;99.90;;;;;;4828250;29;20077;-82
2022/07/30 09:31:12;;;;;;;5.40;3.95;;;22.70;99.90;;;;;;4821955;29;20402;-82
2022/07/30 09:33:46;;;;;;;6.88;4.72;;;22.00;99.90;;;;;;4844479;24;20050;-80
2022/07/30 09:36:36;;;;;;;9.48;4.60;;;22.00;99.90;;;;;;4893350;24;20061;-81
2022/07/30 09:39:03;;;;;;;5.85;4.30;;;21.80;99.90;;;;;;4839595;29;20045;-80
2022/07/30 09:41:34;;;;;;;6.85;4.28;;;22.40;99.90;;;;;;4840015;29;20052;-80
2022/07/30 09:44:05;;;;;;;6.47;3.85;;;22.60;99.90;;;;;;4825605;29;20022;-81
2022/07/30 09:46:50;;;;;;;9.82;3.67;;;22.50;99.90;;;;;;4827404;29;20467;-79
2022/07/30 09:49:18;;;;;;;10.90;4.18;;;22.90;99.90;;;;;;4842299;29;20100;-79
2022/07/30 09:51:46;;;;;;;4.50;3.67;;;23.20;99.90;;;;;;4849584;24;20085;-80
2022/07/30 09:54:18;;;;;;;7.32;4.30;;;22.90;99.90;;;;;;4864376;24;20145;-81
2022/07/30 09:56:46;;;;;;;10.32;4.57;;;22.60;99.90;;;;;;4843804;29;20037;-79
2022/07/30 09:59:47;;;;;;;7.85;4.38;;;22.40;99.90;;;;;;4838640;29;20034;-79
2022/07/30 10:02:36;;;;;;;7.70;4.53;;;22.60;99.90;;;;;;4825695;29;20060;-80
2022/07/30 10:05:21;;;;;;;10.90;5.13;;;23.00;99.90;;;;;;4818680;29;20038;-81
2022/07/30 10:08:42;;;;;;;9.38;4.78;;;22.60;99.90;;;;;;4816128;29;20513;-80
2022/07/30 10:13:36;;;;;;;4.85;4.32;;;22.80;99.90;;;;;;4814066;29;20047;-52
2022/07/30 10:16:03;;;;;;;6.03;4.30;;;22.70;99.90;;;;;;4812229;29;20043;-52
2022/07/30 10:18:30;;;;;;;8.73;4.85;;;23.20;99.90;;;;;;4812434;29;20410;-51
2022/07/30 10:20:56;;;;;;;5.75;4.78;;;23.50;99.90;;;;;;4810411;29;20061;-52
2022/07/30 10:23:23;;;;;;;5.72;4.13;;;24.00;99.90;;;;;;4811677;29;20022;-51
2022/07/30 10:25:53;;;;;;;4.85;3.55;;;23.70;99.90;;;;;;4811217;29;20038;-49
2022/07/30 10:28:19;;;;;;;9.38;4.07;;;24.00;99.90;;;;;;4810184;29;20030;-51
2022/07/30 10:30:48;;;;;;;8.43;4.25;;;23.80;99.90;;;;;;4812671;29;20402;-49
2022/07/30 10:33:14;;;;;;;5.32;4.80;;;23.30;99.90;;;;;;4812082;29;20038;-53
2022/07/30 10:35:40;;;;;;;8.40;5.22;;;23.00;99.90;;;;;;4810891;29;20088;-53
2022/07/30 10:38:09;;;;;;;5.07;4.57;;;22.50;99.90;;;;;;4810081;29;20500;-50
2022/07/30 10:40:40;;;;;;;8.93;3.95;;;22.30;99.90;;;;;;4811792;29;20034;-49
2022/07/30 10:43:27;;;;;;;7.28;5.38;;;22.10;99.90;;;;;;4811879;29;20037;-50
2022/07/30 10:46:08;;;;;;;10.95;5.85;;;21.80;99.90;;;;;;4812914;29;20104;-50
2022/07/30 10:48:34;;;;;;;11.98;6.07;;;21.70;99.90;;;;;;4830411;29;20116;-50
2022/07/30 10:51:00;;;;;;;8.10;6.05;;;21.60;99.90;;;;;;4826891;29;20034;-54
2022/07/30 10:53:33;;;;;;;7.70;5.20;;;21.70;99.90;;;;;;4812365;29;20435;-52
2022/07/30 10:56:18;;;;;;;8.70;6.28;;;21.80;99.90;;;;;;4825781;29;20116;-51
2022/07/30 10:59:00;;;;;;;20.77;6.88;;;21.80;99.90;;;;;;4821657;29;20054;-53
2022/07/30 11:01:46;;;;;;;16.27;8.13;;;21.40;99.90;;;;;;4791466;29;20474;-50
2022/07/30 11:04:22;;;;;;;10.23;6.40;;;21.10;99.90;;;;;;4809715;29;20125;-51
2022/07/30 11:06:49;;;;;;;6.85;6.00;;;21.10;99.90;;;;;;4799852;29;20547;-51
2022/07/30 11:09:41;;;;;;;9.57;6.90;;;20.80;99.90;;;;;;4808021;29;20038;-50
2022/07/30 11:12:08;;;;;;;12.68;7.15;;;20.60;99.90;;;;;;4809641;29;20137;-49
2022/07/30 11:14:46;;;;;;;15.88;5.82;;;20.30;99.90;;;;;;4794603;29;20031;-50
2022/07/30 11:17:13;;;;;;;10.45;8.70;;;19.70;99.90;;;;;;4793936;29;20440;-50
2022/07/30 11:20:01;;;;;;;12.07;6.95;;;19.10;99.90;;;;;;4791478;29;20042;-50
2022/07/30 11:22:35;;;;;;;13.52;9.00;;;19.10;99.90;;;;;;4793344;29;20542;-52
2022/07/30 11:25:02;;;;;;;11.95;7.95;;;19.20;99.90;;;;;;4792099;29;20054;-50
2022/07/30 11:27:42;;;;;;;10.35;7.95;;;19.50;99.90;;;;;;4793292;29;20148;-51
2022/07/30 11:30:27;;;;;;;7.03;6.32;;;20.00;99.90;;;;;;4792777;29;20043;-53
2022/07/30 11:32:59;;;;;;;6.28;5.68;;;20.70;99.90;;;;;;4791208;29;20550;-52
2022/07/30 11:35:27;;;;;;;12.25;4.90;;;21.30;99.90;;;;;;4797508;29;20490;-51
2022/07/30 11:37:56;;;;;;;5.72;5.15;;;21.70;99.90;;;;;;4810866;29;20113;-52
2022/07/30 11:40:23;;;;;;;7.85;5.45;;;22.30;99.90;;;;;;4813302;29;20485;-51
2022/07/30 11:42:49;;;;;;;7.05;4.22;;;22.60;99.90;;;;;;4806610;29;20131;-49
2022/07/30 11:45:15;;;;;;;5.70;4.75;;;22.60;99.90;;;;;;4797143;29;20038;-49
2022/07/30 11:47:45;;;;;;;4.80;4.25;;;23.00;99.90;;;;;;4796783;29;20058;-54
2022/07/30 11:50:41;;;;;;;7.15;5.15;;;23.60;99.90;;;;;;4797414;29;20058;-53
2022/07/30 11:53:18;;;;;;;6.57;4.82;;;23.40;99.90;;;;;;4796583;29;20573;-52
2022/07/30 11:55:55;;;;;;;14.13;5.18;;;22.90;99.90;;;;;;4794859;29;20043;-53
2022/07/30 11:58:31;;;;;;;7.47;4.20;;;23.10;99.90;;;;;;4798308;29;20387;-53
2022/07/30 12:01:00;;;;;;;4.60;4.10;;;22.80;99.90;;;;;;4796343;29;20038;-54
2022/07/30 12:03:27;;;;;;;4.30;4.00;;;23.20;99.90;;;;;;4808810;29;20035;-52
2022/07/30 12:05:53;;;;;;;6.55;4.18;;;23.20;99.90;;;;;;4814576;29;20549;-50
2022/07/30 12:08:19;;;;;;;4.25;3.85;;;22.70;99.90;;;;;;4815155;29;20058;-51
2022/07/30 12:10:57;;;;;;;8.70;4.88;;;22.50;99.90;;;;;;4809966;29;20031;-50
2022/07/30 12:13:23;;;;;;;5.97;4.35;;;22.10;99.90;;;;;;4796269;29;20115;-53
2022/07/30 12:15:49;;;;;;;5.18;4.32;;;21.60;99.90;;;;;;4797698;29;20067;-53
2022/07/30 12:18:24;;;;;;;7.47;4.82;;;21.50;99.90;;;;;;4796990;29;20039;-52
2022/07/30 12:21:15;;;;;;;5.15;4.68;;;21.50;99.90;;;;;;4796670;29;20042;-54
2022/07/30 12:23:42;;;;;;;7.18;4.93;;;22.00;99.90;;;;;;4796010;29;20035;-52
2022/07/30 12:26:23;;;;;;;5.40;4.70;;;22.10;99.90;;;;;;4796158;29;20043;-54
2022/07/30 12:28:49;;;;;;;5.15;4.20;;;22.00;99.90;;;;;;4797949;29;20042;-55
2022/07/30 12:31:15;;;;;;;8.45;4.75;;;22.80;99.90;;;;;;4808916;29;20427;-54
2022/07/30 12:33:41;;;;;;;5.88;3.63;;;24.40;99.90;;;;;;4813388;29;20098;-52
2022/07/30 12:36:09;;;;;;;5.18;4.35;;;24.90;99.90;;;;;;4796443;29;20058;-52
2022/07/30 12:38:51;;;;;;;8.57;4.20;;;24.90;99.90;;;;;;4796511;29;20027;-54
2022/07/30 12:41:17;;;;;;;6.65;4.10;;;24.60;99.90;;;;;;4795727;29;20046;-54
2022/07/30 12:43:50;;;;;;;4.75;3.45;;;24.80;99.90;;;;;;4796419;29;20039;-53
2022/07/30 12:46:40;;;;;;;4.18;3.58;;;24.10;99.90;;;;;;4798409;29;20367;-53
2022/07/30 12:49:07;;;;;;;5.97;4.03;;;23.50;99.90;;;;;;4795182;29;20035;-51
2022/07/30 12:51:36;;;;;;;4.75;2.55;;;23.00;99.90;;;;;;4795430;29;20047;-54
2022/07/30 12:54:14;;;;;;;4.28;2.90;;;22.60;99.90;;;;;;4796420;29;20039;-51
2022/07/30 12:56:40;;;;;;;5.50;3.22;;;22.40;99.90;;;;;;4795814;29;20480;-52
2022/07/30 12:59:20;;;;;;;4.75;3.20;;;22.10;99.90;;;;;;4796165;29;20399;-54
2022/07/30 13:01:46;;;;;;;4.15;3.40;;;22.10;99.90;;;;;;4796060;29;20403;-50
2022/07/30 13:04:13;;;;;;;5.80;3.28;;;21.70;99.90;;;;;;4796415;29;20131;-52
2022/07/30 13:06:40;;;;;;;7.50;3.63;;;21.70;99.90;;;;;;4796196;29;20039;-50